Time;durP1;ratioP1;P1;durP2;ratioP2;P2;SDS_P1;SDS_P2;PMS_P1;PMS_P2;Temp;Humidity;BMP_temperature;BMP_pressure;BME280_temperature;BME280_humidity;BME280_pressure;Samples;Min_cycle;Max_cycle;Signal;HPM_P1;HPM_P2
2021/12/25 00:00:19;;;;;;;3.17;0.90;;;;;;;-5.75;91.39;100150.72;5018082;28;20053;-63
2021/12/25 00:02:47;;;;;;;2.70;1.00;;;;;;;-5.78;91.82;100148.16;5015733;28;20301;-61
2021/12/25 00:05:14;;;;;;;3.13;0.90;;;;;;;-5.80;92.71;100157.56;5014459;28;20245;-63
2021/12/25 00:07:41;;;;;;;4.35;1.30;;;;;;;-5.79;92.67;100161.84;5015597;28;20054;-63
2021/12/25 00:10:09;;;;;;;1.60;0.88;;;;;;;-5.81;92.90;100155.84;5010977;28;20050;-62
2021/12/25 00:12:36;;;;;;;3.95;1.10;;;;;;;-5.89;92.24;100163.56;5019411;28;20281;-63
2021/12/25 00:15:04;;;;;;;2.95;1.10;;;;;;;-5.88;92.53;100165.25;5006914;28;20050;-63
2021/12/25 00:17:32;;;;;;;3.10;1.05;;;;;;;-5.88;92.42;100162.69;5019657;28;20533;-63
2021/12/25 00:19:59;;;;;;;2.08;0.82;;;;;;;-5.85;92.69;100169.53;5000899;28;20237;-63
2021/12/25 00:22:27;;;;;;;1.92;0.90;;;;;;;-5.82;93.39;100168.66;5018753;28;20091;-63
2021/12/25 00:24:54;;;;;;;3.10;0.95;;;;;;;-5.86;93.89;100166.09;5023447;28;20410;-62
2021/12/25 00:29:56;;;;;;;2.05;0.93;;;;;;;-5.89;94.09;100161.00;5006067;28;20057;-63
2021/12/25 00:34:50;;;;;;;4.05;1.25;;;;;;;-5.91;93.75;100174.63;5020687;28;20053;-63
2021/12/25 00:37:17;;;;;;;6.38;1.92;;;;;;;-5.93;94.19;100172.13;5021572;28;20469;-63
2021/12/25 00:39:44;;;;;;;6.05;1.42;;;;;;;-5.93;94.69;100171.28;5013435;28;20056;-62
2021/12/25 00:42:12;;;;;;;3.38;1.23;;;;;;;-5.96;94.84;100179.78;5022509;28;20132;-63
2021/12/25 00:44:39;;;;;;;1.77;0.80;;;;;;;-5.94;94.86;100185.78;5025340;28;20060;-63
2021/12/25 00:47:06;;;;;;;2.38;0.85;;;;;;;-6.00;95.01;100183.22;5022918;28;20057;-63
2021/12/25 00:49:33;;;;;;;2.65;0.80;;;;;;;-5.99;95.26;100189.19;5012378;28;20096;-63
2021/12/25 00:52:00;;;;;;;3.58;1.30;;;;;;;-6.04;95.48;100193.44;5025447;28;20457;-63
2021/12/25 00:54:27;;;;;;;4.07;1.10;;;;;;;-6.01;95.58;100198.59;5021043;28;20061;-63
2021/12/25 00:56:55;;;;;;;2.55;1.20;;;;;;;-5.97;95.60;100202.88;5015972;28;20077;-63
2021/12/25 00:59:22;;;;;;;3.67;1.10;;;;;;;-6.05;95.59;100197.72;5021656;28;20058;-63
2021/12/25 01:01:49;;;;;;;3.28;1.02;;;;;;;-6.09;95.25;100208.81;5020616;28;20545;-63
2021/12/25 01:04:17;;;;;;;2.30;1.15;;;;;;;-6.13;95.36;100207.94;5019725;28;20085;-64
2021/12/25 01:06:44;;;;;;;6.30;1.10;;;;;;;-6.10;95.76;100208.81;5026864;28;20136;-64
2021/12/25 01:09:11;;;;;;;4.40;1.27;;;;;;;-6.11;96.44;100215.66;5019430;28;20152;-63
2021/12/25 01:11:38;;;;;;;3.10;1.00;;;;;;;-6.11;96.57;100215.66;5020843;28;20054;-63
2021/12/25 01:14:20;;;;;;;2.55;0.90;;;;;;;-6.13;96.88;100215.63;5025618;28;20059;-63
2021/12/25 01:17:09;;;;;;;4.35;1.05;;;;;;;-6.14;96.21;100229.31;5014049;28;20054;-63
2021/12/25 01:20:05;;;;;;;3.25;1.20;;;;;;;-6.13;96.70;100241.25;5016116;28;20359;-63
2021/12/25 01:23:30;;;;;;;3.90;0.98;;;;;;;-6.14;96.43;100237.00;5025086;28;20079;-62
2021/12/25 01:25:56;;;;;;;3.05;1.00;;;;;;;-6.18;96.93;100239.53;5016443;28;20054;-63
2021/12/25 01:31:01;;;;;;;2.90;1.00;;;;;;;-6.14;96.52;100243.84;5018213;28;20058;-63
2021/12/25 01:33:59;;;;;;;5.32;1.20;;;;;;;-6.16;96.65;100248.09;5018646;28;20214;-63
2021/12/25 01:36:37;;;;;;;1.85;1.00;;;;;;;-6.18;96.73;100255.78;5025405;28;20216;-63
2021/12/25 01:47:43;;;;;;;5.30;1.40;;;;;;;-6.28;98.12;100263.44;5022572;28;20064;-62
2021/12/25 01:49:57;;;;;;;2.70;0.98;;;;;;;-6.28;97.90;100268.56;5015614;28;20144;-61
2021/12/25 01:52:26;;;;;;;2.00;1.08;;;;;;;-6.31;97.20;100277.06;5020762;28;20375;-62
2021/12/25 01:54:54;;;;;;;4.03;1.02;;;;;;;-6.31;97.43;100271.94;5021912;28;20111;-62
2021/12/25 01:57:21;;;;;;;4.40;0.90;;;;;;;-6.30;97.62;100281.38;5013390;28;20125;-62
2021/12/25 01:59:48;;;;;;;2.38;1.08;;;;;;;-6.29;98.11;100282.22;5017621;28;20049;-62
2021/12/25 02:02:16;;;;;;;3.10;1.17;;;;;;;-6.30;98.60;100276.25;5025026;28;20081;-62
2021/12/25 02:04:43;;;;;;;2.38;0.75;;;;;;;-6.31;98.21;100284.75;5017898;28;20053;-62
2021/12/25 02:07:11;;;;;;;3.75;1.13;;;;;;;-6.35;98.43;100285.59;5016804;28;20458;-62
2021/12/25 02:09:38;;;;;;;5.75;1.10;;;;;;;-6.35;98.68;100290.72;5021397;28;20466;-62
2021/12/25 02:12:06;;;;;;;3.78;1.17;;;;;;;-6.38;99.11;100293.28;5019773;28;20137;-62
2021/12/25 02:14:35;;;;;;;2.40;1.00;;;;;;;-6.42;98.66;100291.56;5022271;28;20191;-61
2021/12/25 02:17:16;;;;;;;4.07;0.90;;;;;;;-6.46;98.13;100292.38;5015810;28;20533;-60
2021/12/25 02:19:52;;;;;;;3.15;1.20;;;;;;;-6.45;99.12;100297.50;5014975;28;20145;-60
2021/12/25 02:22:20;;;;;;;2.50;0.88;;;;;;;-6.46;99.14;100300.91;5012366;28;20141;-61
2021/12/25 02:24:47;;;;;;;3.40;1.17;;;;;;;-6.45;99.25;100304.31;5013043;28;20536;-62
2021/12/25 02:27:14;;;;;;;5.45;0.98;;;;;;;-6.47;98.59;100314.56;5026108;28;20055;-61
2021/12/25 02:29:41;;;;;;;2.80;0.75;;;;;;;-6.48;98.80;100312.88;5018861;28;20128;-62
2021/12/25 02:32:08;;;;;;;3.17;0.98;;;;;;;-6.45;99.26;100309.44;5022095;28;20053;-62
2021/12/25 02:34:36;;;;;;;3.53;1.48;;;;;;;-6.47;99.29;100314.56;5018800;28;20355;-61
2021/12/25 02:37:03;;;;;;;3.13;1.05;;;;;;;-6.48;99.14;100314.59;5012105;28;20497;-62
2021/12/25 02:39:30;;;;;;;2.65;0.98;;;;;;;-6.44;99.32;100314.59;5010293;28;20155;-58
2021/12/25 02:41:57;;;;;;;3.70;1.00;;;;;;;-6.46;98.90;100320.56;5028357;28;20095;-62
2021/12/25 02:44:24;;;;;;;3.47;0.90;;;;;;;-6.51;98.55;100325.66;5001452;28;20049;-63
2021/12/25 02:46:54;;;;;;;3.95;1.63;;;;;;;-6.50;98.60;100331.63;5022142;28;20050;-61
2021/12/25 02:49:24;;;;;;;2.50;1.15;;;;;;;-6.51;98.83;100335.03;5012146;28;20054;-63
2021/12/25 02:51:52;;;;;;;1.65;0.93;;;;;;;-6.52;98.54;100323.09;5024612;28;20096;-61
2021/12/25 02:54:19;;;;;;;3.65;0.88;;;;;;;-6.52;98.65;100331.63;5019387;28;20119;-63
2021/12/25 02:56:46;;;;;;;3.22;0.82;;;;;;;-6.55;98.61;100323.06;5025551;28;20156;-64
2021/12/25 02:59:15;;;;;;;4.30;1.00;;;;;;;-6.55;98.29;100330.75;5016634;28;20054;-62
2021/12/25 03:02:08;;;;;;;2.35;0.90;;;;;;;-6.61;98.77;100329.00;5008549;28;20054;-63
2021/12/25 03:04:40;;;;;;;6.32;2.20;;;;;;;-6.63;98.45;100328.97;5019993;28;20063;-63
2021/12/25 03:07:08;;;;;;;1.67;0.80;;;;;;;-6.62;98.50;100337.50;5017804;28;20145;-63
2021/12/25 03:09:35;;;;;;;3.97;1.20;;;;;;;-6.67;98.08;100334.06;5018794;28;20061;-62
2021/12/25 03:12:05;;;;;;;2.53;0.90;;;;;;;-6.68;98.34;100346.03;5018694;28;20087;-63
2021/12/25 03:15:03;;;;;;;2.65;0.90;;;;;;;-6.69;98.73;100340.91;5022254;28;20248;-63
2021/12/25 03:17:32;;;;;;;3.50;0.98;;;;;;;-6.71;99.27;100343.47;5004420;28;20120;-62
2021/12/25 03:19:59;;;;;;;2.67;1.10;;;;;;;-6.72;99.49;100346.84;5020061;28;20065;-63
2021/12/25 03:22:27;;;;;;;3.70;0.88;;;;;;;-6.72;99.78;100346.84;5006384;28;20060;-63
2021/12/25 03:24:54;;;;;;;3.63;0.77;;;;;;;-6.72;99.25;100356.22;5001661;28;20076;-62
2021/12/25 03:27:22;;;;;;;2.10;0.80;;;;;;;-6.71;99.53;100360.50;5025831;28;20141;-62
2021/12/25 03:29:49;;;;;;;2.45;1.10;;;;;;;-6.71;99.27;100357.94;5018163;28;20132;-62
2021/12/25 03:32:16;;;;;;;5.03;1.20;;;;;;;-6.74;99.77;100358.78;5021004;28;20140;-64
2021/12/25 03:34:43;;;;;;;4.05;1.35;;;;;;;-6.72;99.77;100367.31;5015450;28;20594;-63
2021/12/25 03:37:10;;;;;;;1.50;0.85;;;;;;;-6.72;100.00;100358.78;5009101;28;20053;-62
2021/12/25 03:39:37;;;;;;;3.83;1.05;;;;;;;-6.74;99.90;100363.06;5017613;28;20553;-63
2021/12/25 03:42:05;;;;;;;1.70;1.08;;;;;;;-6.76;100.00;100365.59;5027957;28;20514;-62
2021/12/25 03:44:35;;;;;;;2.30;0.98;;;;;;;-6.80;100.00;100366.41;5010272;28;20421;-62
2021/12/25 03:47:11;;;;;;;3.72;0.90;;;;;;;-6.81;100.00;100363.84;5023103;28;20052;-62
2021/12/25 03:53:09;;;;;;;1.92;1.00;;;;;;;-6.81;100.00;100364.69;5011003;28;20056;-63
2021/12/25 03:58:09;;;;;;;1.85;0.90;;;;;;;-6.82;100.00;100365.56;5014672;28;20055;-63
2021/12/25 04:00:37;;;;;;;3.95;1.30;;;;;;;-6.80;100.00;100375.78;5015303;28;20046;-63
2021/12/25 04:03:09;;;;;;;2.05;1.25;;;;;;;-6.80;100.00;100370.66;5017963;28;20133;-63
2021/12/25 04:05:40;;;;;;;2.58;1.20;;;;;;;-6.83;100.00;100374.09;5019642;28;20085;-63
2021/12/25 04:08:09;;;;;;;2.95;1.35;;;;;;;-6.88;100.00;100368.06;5020972;28;20050;-63
2021/12/25 04:10:39;;;;;;;3.22;1.00;;;;;;;-6.86;100.00;100375.75;5010666;28;20048;-63
2021/12/25 04:13:11;;;;;;;3.85;1.00;;;;;;;-6.88;100.00;100378.31;5024089;28;20613;-64
2021/12/25 04:15:38;;;;;;;2.28;0.88;;;;;;;-6.91;100.00;100385.97;5016975;28;20394;-63
2021/12/25 04:18:06;;;;;;;3.30;1.00;;;;;;;-6.89;100.00;100381.69;5014904;28;20465;-63
2021/12/25 04:20:34;;;;;;;3.40;0.88;;;;;;;-6.88;100.00;100389.41;5018226;28;21013;-63
2021/12/25 04:23:08;;;;;;;6.82;1.23;;;;;;;-6.89;100.00;100386.81;5021823;28;20053;-63
2021/12/25 04:25:36;;;;;;;3.15;1.20;;;;;;;-6.90;100.00;100380.84;5002734;28;20050;-63
2021/12/25 04:28:19;;;;;;;3.38;0.88;;;;;;;-6.93;100.00;100387.66;5026249;28;20525;-63
2021/12/25 04:42:36;;;;;;;2.92;1.00;;;;;;;-6.83;100.00;100386.88;5017352;28;20053;-63
2021/12/25 04:50:09;;;;;;;6.03;1.13;;;;;;;-6.89;99.10;100407.28;5005669;28;20066;-62
2021/12/25 05:03:44;;;;;;;3.22;1.15;;;;;;;-7.04;100.00;100404.59;5018165;28;20157;-64
2021/12/25 05:06:11;;;;;;;6.22;1.63;;;;;;;-7.08;99.99;100398.59;5007936;28;20165;-63
2021/12/25 05:08:39;;;;;;;4.60;1.30;;;;;;;-7.08;99.94;100401.16;5029739;28;20110;-64
2021/12/25 05:11:06;;;;;;;4.45;1.35;;;;;;;-7.11;99.93;100401.16;5017754;28;20053;-63
2021/12/25 05:13:33;;;;;;;4.88;1.35;;;;;;;-7.07;99.75;100397.75;5027015;28;20336;-63
2021/12/25 05:16:02;;;;;;;4.13;1.20;;;;;;;-7.08;100.00;100401.16;5014589;28;20058;-63
2021/12/25 05:18:30;;;;;;;4.53;1.00;;;;;;;-7.08;100.00;100407.97;5027384;28;20064;-63
2021/12/25 05:20:57;;;;;;;6.55;1.33;;;;;;;-7.10;100.00;100405.41;5020597;28;20125;-63
2021/12/25 05:23:24;;;;;;;1.88;1.05;;;;;;;-7.06;100.00;100408.88;5024805;28;20061;-63
2021/12/25 05:25:51;;;;;;;5.60;1.17;;;;;;;-7.08;100.00;100413.09;5013533;28;20097;-63
2021/12/25 05:28:24;;;;;;;4.47;1.27;;;;;;;-7.06;100.00;100419.09;5024915;28;20410;-62
2021/12/25 05:30:53;;;;;;;2.65;0.90;;;;;;;-7.08;100.00;100426.75;5020216;28;20045;-63
2021/12/25 05:33:22;;;;;;;4.78;1.30;;;;;;;-7.10;100.00;100417.34;5019253;28;20469;-62
2021/12/25 05:35:49;;;;;;;4.40;1.35;;;;;;;-7.07;100.00;100414.81;5004874;28;20076;-63
2021/12/25 05:38:16;;;;;;;5.75;1.50;;;;;;;-7.07;100.00;100420.78;5018280;28;20149;-64
2021/12/25 05:40:45;;;;;;;4.00;1.15;;;;;;;-7.05;100.00;100416.53;5026993;28;20060;-63
2021/12/25 05:43:13;;;;;;;2.75;1.13;;;;;;;-7.03;100.00;100426.78;5018225;28;20057;-63
2021/12/25 05:45:40;;;;;;;2.72;1.00;;;;;;;-7.06;100.00;100424.22;5023459;28;20465;-62
2021/12/25 05:48:07;;;;;;;3.50;1.40;;;;;;;-7.05;100.00;100431.03;5018976;28;20057;-63
2021/12/25 05:50:35;;;;;;;2.97;1.13;;;;;;;-7.07;100.00;100428.44;5024798;28;20140;-62
2021/12/25 05:53:03;;;;;;;4.03;1.27;;;;;;;-7.07;100.00;100432.72;5016607;28;20144;-64
2021/12/25 05:55:31;;;;;;;3.00;1.05;;;;;;;-7.07;100.00;100443.81;5016674;28;20136;-63
2021/12/25 05:57:59;;;;;;;1.17;0.88;;;;;;;-7.07;100.00;100443.81;4999737;28;20077;-61
2021/12/25 06:00:26;;;;;;;5.80;1.10;;;;;;;-7.02;100.00;100454.09;5023093;28;20049;-63
2021/12/25 06:02:54;;;;;;;3.67;1.40;;;;;;;-7.10;100.00;100458.28;5015617;28;20075;-60
2021/12/25 06:05:21;;;;;;;3.13;1.45;;;;;;;-7.13;100.00;100456.53;5016861;28;20067;-63
2021/12/25 06:07:48;;;;;;;4.28;1.48;;;;;;;-7.13;100.00;100461.66;5006787;28;20061;-62
2021/12/25 06:10:15;;;;;;;3.80;1.42;;;;;;;-7.13;100.00;100454.84;5001976;28;20058;-63
2021/12/25 06:12:44;;;;;;;4.13;0.85;;;;;;;-7.11;100.00;100460.00;5022503;28;20046;-63
2021/12/25 06:15:14;;;;;;;2.28;0.85;;;;;;;-7.11;100.00;100456.53;5021210;28;20087;-57
2021/12/25 06:17:41;;;;;;;8.10;2.15;;;;;;;-7.10;100.00;100453.16;5022036;28;20148;-63
2021/12/25 06:20:08;;;;;;;5.68;1.40;;;;;;;-7.11;100.00;100460.00;5017053;28;20064;-61
2021/12/25 06:22:36;;;;;;;6.18;1.15;;;;;;;-7.10;100.00;100456.59;5007187;28;20144;-61
2021/12/25 06:25:04;;;;;;;4.13;1.02;;;;;;;-7.10;100.00;100458.28;5024764;28;20053;-60
2021/12/25 06:27:31;;;;;;;3.38;1.08;;;;;;;-7.12;100.00;100465.94;5005213;28;20080;-62
2021/12/25 06:29:59;;;;;;;3.78;1.30;;;;;;;-7.14;100.00;100460.81;5005256;28;20057;-63
2021/12/25 06:32:26;;;;;;;2.10;0.93;;;;;;;-7.12;100.00;100468.47;5003158;28;20136;-62
2021/12/25 06:34:53;;;;;;;2.72;1.00;;;;;;;-7.13;100.00;100467.63;5016239;28;20115;-64
2021/12/25 06:37:20;;;;;;;2.22;1.02;;;;;;;-7.16;100.00;100467.63;4997944;28;20602;-63
2021/12/25 06:39:48;;;;;;;2.35;1.02;;;;;;;-7.17;100.00;100468.44;5020353;28;20570;-62
2021/12/25 06:42:15;;;;;;;3.15;0.82;;;;;;;-7.20;100.00;100473.53;5023104;28;20052;-61
2021/12/25 06:44:43;;;;;;;2.47;0.90;;;;;;;-7.19;100.00;100476.97;5002691;28;20057;-63
2021/12/25 06:47:10;;;;;;;5.00;1.27;;;;;;;-7.19;100.00;100480.38;5017660;28;20494;-63
2021/12/25 06:49:37;;;;;;;2.38;0.98;;;;;;;-7.18;100.00;100481.22;5017098;28;20061;-63
2021/12/25 06:52:08;;;;;;;3.33;1.08;;;;;;;-7.18;100.00;100481.22;5018886;28;20060;-62
2021/12/25 06:54:35;;;;;;;4.88;1.40;;;;;;;-7.16;100.00;100484.63;5019712;28;20053;-63
2021/12/25 06:57:03;;;;;;;2.97;1.05;;;;;;;-7.16;100.00;100476.97;5020110;28;20605;-61
2021/12/25 06:59:30;;;;;;;4.70;1.23;;;;;;;-7.17;100.00;100486.34;5018972;28;20085;-61
2021/12/25 07:01:57;;;;;;;2.05;1.00;;;;;;;-7.17;100.00;100488.03;4998459;28;20038;-62
2021/12/25 07:04:25;;;;;;;4.22;1.17;;;;;;;-7.17;100.00;100498.28;5017915;28;20058;-63
2021/12/25 07:06:52;;;;;;;1.85;0.88;;;;;;;-7.18;100.00;100492.31;5017997;28;20495;-63
2021/12/25 07:09:19;;;;;;;2.00;1.30;;;;;;;-7.16;100.00;100498.31;5024170;28;20080;-63
2021/12/25 07:11:46;;;;;;;4.05;1.20;;;;;;;-7.17;100.00;100494.00;5018853;28;20054;-63
2021/12/25 07:14:14;;;;;;;4.75;1.35;;;;;;;-7.16;100.00;100495.75;5023497;28;20128;-63
2021/12/25 07:16:42;;;;;;;2.88;1.13;;;;;;;-7.15;100.00;100497.47;5015667;28;20056;-63
2021/12/25 07:19:12;;;;;;;1.80;0.88;;;;;;;-7.12;100.00;100499.19;5016400;28;20088;-63
2021/12/25 07:21:39;;;;;;;2.35;1.13;;;;;;;-7.08;100.00;100502.63;5014185;28;20128;-62
2021/12/25 07:24:08;;;;;;;4.78;0.95;;;;;;;-7.07;100.00;100507.75;5025782;28;20059;-63
2021/12/25 07:26:36;;;;;;;4.00;1.33;;;;;;;-7.03;100.00;100506.09;5022624;28;20128;-63
2021/12/25 07:29:05;;;;;;;3.38;1.05;;;;;;;-6.99;100.00;100507.84;5017463;28;20084;-63
2021/12/25 07:31:32;;;;;;;3.63;1.17;;;;;;;-6.97;100.00;100508.75;5021100;28;20129;-63
2021/12/25 07:34:02;;;;;;;3.30;1.35;;;;;;;-6.94;100.00;100508.75;5021728;28;20136;-63
2021/12/25 07:36:29;;;;;;;3.58;1.50;;;;;;;-6.93;100.00;100505.38;5059941;22;20143;-58
2021/12/25 07:38:57;;;;;;;6.20;1.80;;;;;;;-6.92;100.00;100512.19;5067331;28;20064;-59
2021/12/25 07:41:24;;;;;;;3.92;1.38;;;;;;;-6.93;100.00;100510.50;5067264;28;20399;-59
2021/12/25 07:43:51;;;;;;;2.90;1.38;;;;;;;-6.83;100.00;100514.00;5060600;28;20413;-60
2021/12/25 07:46:18;;;;;;;4.40;1.60;;;;;;;-6.78;100.00;100514.88;5063721;28;20155;-54
2021/12/25 07:48:46;;;;;;;2.25;1.42;;;;;;;-6.79;100.00;100515.75;5066681;28;20052;-59
2021/12/25 07:51:14;;;;;;;4.55;1.30;;;;;;;-6.75;100.00;100515.78;5067248;28;20078;-60
2021/12/25 07:53:43;;;;;;;3.80;1.70;;;;;;;-6.74;100.00;100511.53;5060992;28;20472;-58
2021/12/25 07:56:12;;;;;;;4.38;1.50;;;;;;;-6.72;100.00;100520.06;5066574;28;20102;-59
2021/12/25 07:58:39;;;;;;;3.53;1.65;;;;;;;-6.69;100.00;100520.94;5063909;28;20048;-59
2021/12/25 08:01:06;;;;;;;7.20;1.80;;;;;;;-6.69;100.00;100523.50;5059625;28;20499;-58
2021/12/25 08:03:35;;;;;;;4.18;1.80;;;;;;;-6.70;100.00;100515.84;5062590;28;20060;-59
2021/12/25 08:06:03;;;;;;;4.75;1.85;;;;;;;-6.52;100.00;100525.38;5065940;28;20516;-59
2021/12/25 08:08:30;;;;;;;3.58;1.50;;;;;;;-6.44;100.00;100519.47;5066657;28;20147;-58
2021/12/25 08:10:57;;;;;;;6.72;1.70;;;;;;;-6.35;100.00;100516.09;5063647;28;20319;-59
2021/12/25 08:13:24;;;;;;;5.53;2.08;;;;;;;-6.32;100.00;100518.69;5067363;28;20055;-59
2021/12/25 08:15:51;;;;;;;6.20;1.95;;;;;;;-6.32;99.52;100531.50;5066880;28;20059;-60
2021/12/25 08:18:19;;;;;;;3.45;2.10;;;;;;;-6.18;99.25;100524.78;5066835;28;20475;-60
2021/12/25 08:20:46;;;;;;;5.07;2.00;;;;;;;-6.14;98.78;100531.66;5061981;28;20405;-59
2021/12/25 08:23:13;;;;;;;5.80;1.90;;;;;;;-6.01;98.28;100531.75;5066965;28;20070;-60
2021/12/25 08:25:40;;;;;;;7.75;1.95;;;;;;;-5.93;97.62;100537.78;5064437;28;20139;-59
2021/12/25 08:28:08;;;;;;;3.58;1.52;;;;;;;-5.87;97.31;100532.66;5066980;28;20481;-60
2021/12/25 08:30:35;;;;;;;6.80;2.00;;;;;;;-5.81;96.29;100532.69;5068109;28;20327;-58
2021/12/25 08:33:03;;;;;;;5.22;2.25;;;;;;;-5.76;96.24;100536.16;5067926;28;20411;-59
2021/12/25 08:35:31;;;;;;;7.32;2.15;;;;;;;-5.69;96.20;100544.72;5066249;28;20545;-59
2021/12/25 08:37:58;;;;;;;5.03;2.17;;;;;;;-5.59;95.56;100546.50;5067916;28;20298;-58
2021/12/25 08:40:26;;;;;;;5.38;2.10;;;;;;;-5.47;95.44;100549.13;5065727;28;20135;-59
2021/12/25 08:42:58;;;;;;;5.40;2.45;;;;;;;-5.31;94.71;100550.06;5066854;28;20053;-59
2021/12/25 08:45:44;;;;;;;7.72;3.25;;;;;;;-5.06;95.09;100551.00;5069408;28;20129;-61
2021/12/25 08:48:17;;;;;;;6.53;2.08;;;;;;;-4.82;94.07;100557.06;5052152;28;20445;-60
2021/12/25 08:50:51;;;;;;;8.93;2.83;;;;;;;-4.62;92.32;100561.41;5065638;28;20045;-58
2021/12/25 08:53:20;;;;;;;6.50;2.40;;;;;;;-4.47;91.77;100562.28;5068890;28;20052;-60
2021/12/25 08:55:49;;;;;;;5.95;2.38;;;;;;;-4.25;90.08;100565.72;5069269;28;20383;-60
2021/12/25 08:58:16;;;;;;;6.32;2.45;;;;;;;-4.21;89.58;100562.28;5069504;28;20052;-61
2021/12/25 09:00:44;;;;;;;6.68;2.10;;;;;;;-4.12;88.77;100570.00;5063641;28;20051;-60
2021/12/25 09:03:11;;;;;;;3.97;2.05;;;;;;;-3.98;87.90;100565.72;5069894;28;20052;-60
2021/12/25 09:05:38;;;;;;;3.75;1.92;;;;;;;-3.85;87.57;100564.84;5068849;28;20064;-60
2021/12/25 09:08:06;;;;;;;8.38;2.35;;;;;;;-3.76;86.59;100569.13;5067700;28;20099;-61
2021/12/25 09:10:35;;;;;;;6.65;2.45;;;;;;;-3.70;86.04;100571.66;5067471;28;20048;-58
2021/12/25 09:13:02;;;;;;;5.55;2.30;;;;;;;-3.73;84.96;100581.13;5053216;28;20135;-59
2021/12/25 09:15:30;;;;;;;8.60;2.85;;;;;;;-3.54;84.70;100569.94;5067878;28;20141;-59
2021/12/25 09:17:57;;;;;;;7.25;3.33;;;;;;;-3.46;83.44;100575.94;5066056;28;20167;-61
2021/12/25 09:20:24;;;;;;;9.63;2.78;;;;;;;-3.37;81.75;100575.06;5071757;28;20151;-61
2021/12/25 09:22:51;;;;;;;6.47;2.83;;;;;;;-3.37;81.85;100572.47;5071630;28;20040;-59
2021/12/25 09:25:20;;;;;;;6.72;2.88;;;;;;;-3.24;81.07;100574.16;5071588;28;20075;-60
2021/12/25 09:27:47;;;;;;;6.72;2.70;;;;;;;-3.06;80.24;100579.22;5072088;28;20442;-59
2021/12/25 09:30:14;;;;;;;9.32;2.58;;;;;;;-2.92;78.44;100588.63;5068383;28;20067;-60
2021/12/25 09:32:41;;;;;;;4.97;2.67;;;;;;;-2.82;76.82;100585.13;5071434;28;20044;-59
2021/12/25 09:35:09;;;;;;;4.95;2.35;;;;;;;-3.07;75.74;100585.22;5067495;28;20080;-60
2021/12/25 09:37:37;;;;;;;6.15;1.88;;;;;;;-2.94;76.39;100586.03;5070954;28;20079;-60
2021/12/25 09:40:08;;;;;;;3.28;1.48;;;;;;;-3.02;75.39;100585.19;5051411;28;20052;-58
2021/12/25 09:42:38;;;;;;;5.18;1.70;;;;;;;-2.90;75.11;100586.88;5053256;28;20537;-61
2021/12/25 09:45:06;;;;;;;3.10;1.65;;;;;;;-2.53;74.37;100582.38;5062110;28;20076;-61
2021/12/25 09:47:33;;;;;;;2.97;1.38;;;;;;;-2.34;73.21;100593.44;5052116;28;20265;-60
2021/12/25 09:50:00;;;;;;;7.65;1.60;;;;;;;-2.27;72.70;100592.53;5067755;28;20075;-59
2021/12/25 09:52:28;;;;;;;3.65;1.90;;;;;;;-2.16;71.43;100590.75;5069489;28;20135;-58
2021/12/25 09:54:55;;;;;;;3.85;1.60;;;;;;;-2.12;69.83;100594.13;5065785;28;20052;-60
2021/12/25 09:57:23;;;;;;;5.72;1.73;;;;;;;-2.05;68.75;100596.66;5052465;28;20475;-58
2021/12/25 09:59:54;;;;;;;4.88;1.70;;;;;;;-1.98;66.22;100602.63;5066861;28;20049;-60
2021/12/25 10:02:21;;;;;;;3.50;1.42;;;;;;;-1.92;67.48;100596.56;5065631;28;20163;-58
2021/12/25 10:04:52;;;;;;;4.15;1.70;;;;;;;-1.85;67.52;100598.19;5066705;28;20056;-60
2021/12/25 10:07:24;;;;;;;4.25;2.22;;;;;;;-1.93;67.28;100606.03;5052130;28;20048;-58
2021/12/25 10:10:05;;;;;;;10.38;2.33;;;;;;;-1.82;67.88;100600.78;5066570;28;20056;-61
2021/12/25 10:13:00;;;;;;;5.65;2.17;;;;;;;-1.57;67.92;100591.94;5069813;28;20131;-60
2021/12/25 10:15:28;;;;;;;8.23;3.53;;;;;;;-1.49;67.89;100591.00;5063567;28;20049;-59
2021/12/25 10:17:57;;;;;;;6.65;2.70;;;;;;;-1.41;68.52;100595.19;5072764;28;20056;-58
2021/12/25 10:20:29;;;;;;;4.90;2.20;;;;;;;-1.28;67.48;100598.53;5066689;28;20136;-60
2021/12/25 10:23:11;;;;;;;5.65;2.33;;;;;;;-1.17;68.80;100585.47;5069979;28;20124;-59
2021/12/25 10:25:59;;;;;;;5.15;2.45;;;;;;;-1.03;67.82;100594.78;5067905;28;20127;-57
2021/12/25 10:28:35;;;;;;;8.40;3.47;;;;;;;-1.03;67.60;100592.22;5064449;28;20327;-60
2021/12/25 10:31:13;;;;;;;10.30;4.25;;;;;;;-0.75;68.00;100586.69;5067623;28;20398;-60
2021/12/25 10:33:53;;;;;;;7.47;3.38;;;;;;;-0.61;67.02;100589.94;5067802;28;20599;-57
2021/12/25 10:36:26;;;;;;;6.32;3.20;;;;;;;-0.52;66.03;100587.22;5069001;28;20302;-59
2021/12/25 10:39:20;;;;;;;4.82;2.50;;;;;;;-0.49;65.42;100591.50;5067751;28;20084;-61
2021/12/25 10:41:52;;;;;;;6.32;2.42;;;;;;;-0.49;64.97;100588.94;5059251;28;20139;-60
2021/12/25 10:44:32;;;;;;;5.85;2.30;;;;;;;-0.52;64.28;100594.13;5065253;28;20462;-59
2021/12/25 10:47:05;;;;;;;5.82;2.60;;;;;;;-0.57;64.95;100588.16;5061793;28;20593;-58
2021/12/25 10:49:38;;;;;;;6.20;2.00;;;;;;;-0.60;63.75;100583.03;5065421;28;20131;-60
2021/12/25 10:52:21;;;;;;;3.47;1.92;;;;;;;-0.75;63.66;100585.84;5068914;28;20119;-59
2021/12/25 10:54:55;;;;;;;5.93;2.33;;;;;;;-0.54;63.86;100588.09;5064091;28;20049;-60
2021/12/25 10:57:34;;;;;;;5.55;2.15;;;;;;;-0.47;63.61;100591.47;5069227;28;20059;-60
2021/12/25 11:00:22;;;;;;;6.47;1.80;;;;;;;-0.24;62.24;100589.41;5059198;28;20436;-58
2021/12/25 11:02:59;;;;;;;3.92;2.00;;;;;;;-0.57;62.20;100578.69;5063533;28;20120;-57
2021/12/25 11:05:36;;;;;;;3.22;1.60;;;;;;;-0.36;61.83;100576.66;5065282;28;20095;-60
2021/12/25 11:08:07;;;;;;;4.88;2.33;;;;;;;-0.41;60.35;100579.31;5068389;28;20053;-60
2021/12/25 11:11:03;;;;;;;7.47;2.30;;;;;;;-0.06;60.60;100583.94;5063326;28;20056;-57
2021/12/25 11:13:44;;;;;;;4.20;1.80;;;;;;;0.43;60.06;100585.69;5063977;28;20061;-54
2021/12/25 11:16:31;;;;;;;6.00;2.03;;;;;;;0.73;57.68;100573.91;5067081;28;20094;-59
2021/12/25 11:19:14;;;;;;;3.30;1.65;;;;;;;0.73;57.15;100575.66;5065278;28;20071;-60
2021/12/25 11:21:46;;;;;;;2.78;1.52;;;;;;;1.30;57.16;100579.66;5068722;28;20512;-57
2021/12/25 11:24:20;;;;;;;5.78;1.85;;;;;;;1.35;55.19;100581.28;5065579;28;20053;-58
2021/12/25 11:26:49;;;;;;;2.88;1.42;;;;;;;1.68;55.26;100578.81;5066361;28;20528;-59
2021/12/25 11:29:22;;;;;;;3.97;1.73;;;;;;;1.99;53.49;100591.94;5064048;28;20071;-59
2021/12/25 11:31:50;;;;;;;5.45;1.52;;;;;;;2.43;51.85;100585.63;5070013;28;20500;-60
2021/12/25 11:34:18;;;;;;;2.50;1.60;;;;;;;2.89;51.69;100578.34;5065556;28;20131;-60
2021/12/25 11:36:48;;;;;;;4.65;1.45;;;;;;;3.38;52.20;100579.47;5072825;28;20048;-58
2021/12/25 11:39:16;;;;;;;4.18;1.45;;;;;;;3.78;51.28;100584.31;5065841;28;20143;-59
2021/12/25 11:41:44;;;;;;;3.33;1.40;;;;;;;4.02;48.79;100586.16;5069128;28;20132;-58
2021/12/25 11:44:46;;;;;;;5.35;1.70;;;;;;;4.20;46.90;100581.25;5065578;28;20489;-57
2021/12/25 11:47:38;;;;;;;3.60;1.63;;;;;;;4.42;46.30;100578.78;5067837;28;20053;-59
2021/12/25 11:50:21;;;;;;;2.65;1.63;;;;;;;4.42;47.19;100579.63;5058792;28;20082;-60
2021/12/25 11:53:30;;;;;;;6.97;2.20;;;;;;;4.91;45.25;100583.09;5064227;28;20310;-59
2021/12/25 11:58:41;;;;;;;3.53;1.40;;;;;;;6.19;42.64;100577.28;5066710;28;20070;-60
2021/12/25 12:01:18;;;;;;;6.63;2.15;;;;;;;6.48;41.06;100573.41;5048870;28;20075;-58
2021/12/25 12:03:52;;;;;;;3.78;2.00;;;;;;;7.32;37.82;100564.44;5058841;28;20059;-60
2021/12/25 12:06:21;;;;;;;4.07;1.70;;;;;;;8.98;37.53;100567.56;5049176;28;20068;-59
2021/12/25 12:08:54;;;;;;;8.52;3.00;;;;;;;10.68;33.24;100567.63;5049691;28;20056;-58
2021/12/25 12:11:26;;;;;;;4.35;1.75;;;;;;;11.26;30.56;100564.06;5065292;28;20106;-60
2021/12/25 12:14:15;;;;;;;6.35;2.35;;;;;;;12.27;29.73;100563.66;5067744;28;20047;-60
2021/12/25 12:16:51;;;;;;;4.35;1.77;;;;;;;12.72;29.32;100558.00;5050020;28;20603;-60
2021/12/25 12:19:30;;;;;;;3.40;2.08;;;;;;;12.65;28.07;100562.84;5057890;28;20433;-59
2021/12/25 12:21:59;;;;;;;7.70;2.63;;;;;;;12.31;29.51;100569.56;5070949;28;20049;-60
2021/12/25 12:24:44;;;;;;;3.40;2.20;;;;;;;12.42;28.72;100564.41;5071817;28;20063;-62
2021/12/25 12:27:11;;;;;;;;;;;;;;;13.56;27.54;100573.22;5071134;28;20106;-60
2021/12/25 12:29:38;;;;;;;6.15;2.67;;;;;;;13.70;27.40;100574.88;5068620;28;19928;-59
2021/12/25 12:32:09;;;;;;;7.63;2.58;;;;;;;13.13;26.98;100569.16;5072632;28;20075;-61